Time;durP1;ratioP1;P1;durP2;ratioP2;P2;SDS_P1;SDS_P2;PMS_P1;PMS_P2;Temp;Humidity;BMP_temperature;BMP_pressure;BME280_temperature;BME280_humidity;BME280_pressure;Samples;Min_cycle;Max_cycle;Signal;HPM_P1;HPM_P2
2023/10/01 00:00:28;;;;;;;4.03;2.30;;;19.40;76.30;;;;;;5066354;28;20040;-74
2023/10/01 00:02:56;;;;;;;4.30;2.35;;;19.40;76.40;;;;;;5069708;28;20063;-74
2023/10/01 00:05:24;;;;;;;4.10;2.47;;;19.40;76.40;;;;;;5057357;28;20041;-70
2023/10/01 00:07:53;;;;;;;3.55;2.15;;;19.40;76.40;;;;;;5066277;28;20032;-75
2023/10/01 00:10:22;;;;;;;3.72;2.75;;;19.40;76.50;;;;;;5065537;28;20090;-76
2023/10/01 00:12:52;;;;;;;3.47;2.25;;;19.40;76.60;;;;;;5064839;28;20036;-69
2023/10/01 00:15:21;;;;;;;3.88;1.90;;;19.40;76.60;;;;;;5053311;28;20154;-72
2023/10/01 00:17:48;;;;;;;3.00;2.10;;;19.40;76.60;;;;;;5062702;28;20036;-75
2023/10/01 00:20:20;;;;;;;4.30;2.70;;;19.40;76.60;;;;;;5061327;28;20043;-70
2023/10/01 00:22:57;;;;;;;5.10;2.70;;;19.40;77.20;;;;;;5062616;28;20297;-75
2023/10/01 00:25:24;;;;;;;3.47;2.15;;;19.40;76.90;;;;;;5067796;28;20045;-75
2023/10/01 00:27:51;;;;;;;3.28;2.90;;;19.40;77.40;;;;;;5064667;28;20370;-74
2023/10/01 00:30:17;;;;;;;7.55;3.10;;;19.40;76.90;;;;;;5068319;28;20500;-75
2023/10/01 00:32:43;;;;;;;5.70;2.80;;;19.40;76.90;;;;;;5067099;28;20048;-73
2023/10/01 00:35:12;;;;;;;4.20;2.88;;;19.40;77.00;;;;;;5068842;28;20244;-76
2023/10/01 00:37:41;;;;;;;3.10;2.58;;;19.40;77.00;;;;;;5059766;28;20262;-70
2023/10/01 00:40:10;;;;;;;3.80;2.72;;;19.40;77.00;;;;;;5058548;28;20094;-76
2023/10/01 00:42:38;;;;;;;3.17;2.03;;;19.40;77.10;;;;;;5061912;28;20691;-74
2023/10/01 00:45:11;;;;;;;3.97;2.55;;;19.40;77.10;;;;;;5060283;28;20442;-74
2023/10/01 00:47:40;;;;;;;3.17;2.35;;;19.40;77.20;;;;;;5061727;28;20045;-74
2023/10/01 00:50:12;;;;;;;4.05;2.20;;;19.40;77.30;;;;;;5060032;28;20066;-74
2023/10/01 00:52:40;;;;;;;4.28;3.03;;;19.40;77.30;;;;;;5067211;28;20086;-73
2023/10/01 00:55:08;;;;;;;4.45;2.15;;;19.40;77.30;;;;;;5058214;28;20139;-72
2023/10/01 00:57:37;;;;;;;3.45;2.70;;;19.40;77.30;;;;;;5052479;28;20633;-77
2023/10/01 01:00:05;;;;;;;3.60;2.40;;;19.40;77.40;;;;;;5060889;28;20120;-76
2023/10/01 01:02:37;;;;;;;3.38;2.15;;;19.40;77.40;;;;;;5058375;28;20524;-69
2023/10/01 01:05:06;;;;;;;3.65;2.40;;;19.40;77.40;;;;;;5060991;28;20418;-76
2023/10/01 01:07:36;;;;;;;3.45;2.05;;;19.40;77.50;;;;;;5060123;28;20036;-76
2023/10/01 01:10:03;;;;;;;3.15;2.28;;;19.40;77.50;;;;;;5054549;28;20499;-76
2023/10/01 01:12:29;;;;;;;2.60;2.05;;;19.40;77.60;;;;;;5057630;28;20037;-76
2023/10/01 01:14:58;;;;;;;4.10;2.40;;;19.40;77.60;;;;;;5052329;28;20032;-74
2023/10/01 01:17:24;;;;;;;3.25;2.00;;;19.40;77.60;;;;;;5059688;28;20054;-67
2023/10/01 01:19:52;;;;;;;3.42;2.10;;;19.40;77.70;;;;;;5055259;28;20036;-70
2023/10/01 01:22:28;;;;;;;2.53;1.75;;;19.40;77.70;;;;;;5059336;28;20541;-68
2023/10/01 01:25:00;;;;;;;3.40;2.42;;;19.40;77.70;;;;;;5057787;28;20037;-67
2023/10/01 01:27:31;;;;;;;2.30;1.87;;;19.40;77.80;;;;;;5054438;28;20040;-68
2023/10/01 01:29:57;;;;;;;3.60;2.35;;;19.40;77.80;;;;;;5060265;28;20029;-68
2023/10/01 01:32:29;;;;;;;4.15;2.13;;;19.40;77.80;;;;;;5060616;28;20093;-68
2023/10/01 01:34:56;;;;;;;3.65;1.90;;;19.40;77.80;;;;;;5055585;28;20488;-70
2023/10/01 01:37:46;;;;;;;2.05;1.40;;;19.40;77.80;;;;;;5051444;28;20109;-68
2023/10/01 01:40:35;;;;;;;2.83;2.03;;;19.40;77.90;;;;;;5054356;28;20028;-68
2023/10/01 01:43:04;;;;;;;3.72;2.05;;;19.40;77.90;;;;;;5055560;28;20044;-69
2023/10/01 01:45:38;;;;;;;2.67;1.80;;;19.40;77.90;;;;;;5055973;28;20127;-77
2023/10/01 01:48:21;;;;;;;2.97;1.95;;;19.40;77.90;;;;;;5050286;28;20045;-72
2023/10/01 01:50:54;;;;;;;2.88;1.80;;;19.40;77.90;;;;;;5051150;28;20020;-74
2023/10/01 01:53:21;;;;;;;2.85;1.70;;;19.40;78.00;;;;;;5050288;28;20040;-75
2023/10/01 01:55:47;;;;;;;3.15;1.70;;;19.40;78.00;;;;;;5051491;28;20500;-70
2023/10/01 01:58:16;;;;;;;2.08;1.80;;;19.40;78.00;;;;;;5058878;28;20486;-76
2023/10/01 02:01:01;;;;;;;2.80;1.75;;;19.40;78.10;;;;;;5044140;28;20114;-69
2023/10/01 02:03:32;;;;;;;3.22;1.95;;;19.40;78.10;;;;;;5052915;28;20119;-74
2023/10/01 02:05:59;;;;;;;2.55;2.05;;;19.40;78.10;;;;;;5046018;28;20029;-71
2023/10/01 02:08:34;;;;;;;3.30;1.92;;;19.40;78.20;;;;;;5056613;28;20036;-71
2023/10/01 02:11:09;;;;;;;2.55;1.77;;;19.40;78.20;;;;;;5053213;28;20036;-75
2023/10/01 02:13:41;;;;;;;2.47;1.65;;;19.40;78.30;;;;;;5052672;28;20612;-82
2023/10/01 02:18:56;;;;;;;2.60;1.52;;;19.40;78.40;;;;;;5047571;28;20073;-87
2023/10/01 02:21:43;;;;;;;3.67;1.90;;;19.40;78.40;;;;;;5057758;28;20051;-86
2023/10/01 02:24:11;;;;;;;2.42;1.50;;;19.40;78.50;;;;;;5046312;28;20045;-81
2023/10/01 02:26:41;;;;;;;2.83;1.98;;;19.40;78.70;;;;;;5049531;28;20036;-88
2023/10/01 02:29:12;;;;;;;1.83;1.30;;;19.40;78.60;;;;;;5057683;28;20429;-83
2023/10/01 02:31:54;;;;;;;2.63;2.03;;;19.40;78.50;;;;;;5049057;28;20029;-85
2023/10/01 02:34:21;;;;;;;2.67;1.50;;;19.40;78.60;;;;;;5051351;28;20036;-86
2023/10/01 02:36:49;;;;;;;2.28;1.45;;;19.40;78.60;;;;;;5052527;28;20037;-74
2023/10/01 02:39:27;;;;;;;3.22;1.80;;;19.40;79.10;;;;;;5060680;28;20036;-74
2023/10/01 02:44:34;;;;;;;2.35;1.52;;;19.40;78.70;;;;;;5061641;28;20040;-76
2023/10/01 02:47:09;;;;;;;3.20;1.58;;;19.40;78.70;;;;;;5060449;28;20067;-78
2023/10/01 02:49:47;;;;;;;2.05;1.50;;;19.50;78.90;;;;;;5058217;28;20060;-70
2023/10/01 02:52:14;;;;;;;2.83;1.75;;;19.40;78.70;;;;;;5058638;28;20033;-76
2023/10/01 02:54:40;;;;;;;1.92;1.30;;;19.40;78.70;;;;;;5061994;28;20359;-79
2023/10/01 02:57:13;;;;;;;2.42;1.40;;;19.50;79.00;;;;;;5076244;28;20025;-74
2023/10/01 03:02:32;;;;;;;1.67;1.40;;;19.50;79.10;;;;;;5082947;28;20024;-74
2023/10/01 03:05:06;;;;;;;2.20;1.20;;;19.40;78.90;;;;;;5078453;28;20039;-73
2023/10/01 03:07:38;;;;;;;2.10;1.50;;;19.40;78.90;;;;;;5080690;28;20598;-73
2023/10/01 03:10:15;;;;;;;2.20;1.52;;;19.40;79.00;;;;;;5061740;28;20174;-72
2023/10/01 03:12:42;;;;;;;2.00;1.02;;;19.40;79.00;;;;;;5057979;28;20045;-76
2023/10/01 03:17:56;;;;;;;2.00;1.25;;;19.40;79.00;;;;;;5060669;28;20041;-69
2023/10/01 03:21:18;;;;;;;1.95;1.33;;;19.40;79.10;;;;;;5059272;28;20024;-69
2023/10/01 03:26:03;;;;;;;1.48;1.00;;;19.40;79.10;;;;;;5056055;28;20020;-75
2023/10/01 03:29:13;;;;;;;2.53;1.23;;;19.40;79.10;;;;;;5059957;28;20420;-78
2023/10/01 03:31:21;;;;;;;2.35;1.33;;;19.40;79.10;;;;;;5054062;28;20114;-75
2023/10/01 03:33:53;;;;;;;2.33;1.42;;;19.40;79.10;;;;;;5057520;28;20227;-79
2023/10/01 03:36:28;;;;;;;3.33;1.50;;;19.40;79.20;;;;;;5054415;28;20044;-77
2023/10/01 03:38:59;;;;;;;3.67;1.20;;;19.40;79.20;;;;;;5050474;28;20381;-76
2023/10/01 03:41:27;;;;;;;2.10;1.38;;;19.30;79.00;;;;;;5057703;28;20123;-77
2023/10/01 03:43:56;;;;;;;2.20;1.92;;;19.30;79.10;;;;;;5057473;28;20039;-76
2023/10/01 03:48:58;;;;;;;1.75;1.65;;;19.40;79.20;;;;;;5049238;28;20041;-78
2023/10/01 03:51:28;;;;;;;2.42;1.50;;;19.40;79.30;;;;;;5060789;28;20128;-73
2023/10/01 03:54:06;;;;;;;2.05;1.48;;;19.40;79.30;;;;;;5056757;28;20131;-75
2023/10/01 03:56:36;;;;;;;2.10;1.55;;;19.40;79.30;;;;;;5058652;28;20116;-72
2023/10/01 03:59:15;;;;;;;1.50;1.20;;;19.40;79.30;;;;;;5060263;28;20087;-74
2023/10/01 04:01:58;;;;;;;2.53;1.85;;;19.40;79.30;;;;;;5059313;28;20071;-77
2023/10/01 04:04:27;;;;;;;2.20;1.40;;;19.40;79.30;;;;;;5054779;28;20040;-76
2023/10/01 04:07:11;;;;;;;1.95;1.50;;;19.40;79.30;;;;;;5059120;28;20051;-76
2023/10/01 04:09:47;;;;;;;;;;;19.30;79.20;;;;;;5049264;28;20029;-71
2023/10/01 04:12:20;;;;;;;2.25;0.90;;;19.40;79.30;;;;;;5062110;28;19971;-72
2023/10/01 04:14:49;;;;;;;1.73;1.17;;;19.30;79.40;;;;;;5052056;28;20527;-69
2023/10/01 04:17:28;;;;;;;7.25;1.70;;;19.40;79.20;;;;;;5062330;28;20120;-70
2023/10/01 04:19:57;;;;;;;1.67;1.55;;;19.40;79.20;;;;;;5060137;28;20035;-73
2023/10/01 04:22:25;;;;;;;2.42;1.00;;;19.40;79.20;;;;;;5058756;28;20029;-79
2023/10/01 04:25:09;;;;;;;2.15;1.48;;;19.30;79.00;;;;;;5057046;28;20112;-77
2023/10/01 04:27:35;;;;;;;1.35;1.25;;;19.40;79.20;;;;;;5056521;28;20135;-80
2023/10/01 04:30:08;;;;;;;1.60;1.30;;;19.30;79.00;;;;;;5057849;28;20036;-74
2023/10/01 04:32:34;;;;;;;0.95;0.85;;;19.40;79.20;;;;;;5057810;28;20666;-72
2023/10/01 04:35:01;;;;;;;2.10;1.60;;;19.40;79.20;;;;;;5060373;28;20040;-72
2023/10/01 04:37:41;;;;;;;1.70;1.02;;;19.30;79.10;;;;;;5056198;28;20041;-72
2023/10/01 04:42:54;;;;;;;2.53;1.20;;;19.30;79.20;;;;;;5064608;28;20031;-77
2023/10/01 04:45:23;;;;;;;1.58;1.23;;;19.40;79.40;;;;;;5057006;28;20035;-69
2023/10/01 04:47:55;;;;;;;2.47;1.77;;;19.30;79.30;;;;;;5054729;28;20504;-69
2023/10/01 04:50:27;;;;;;;1.65;1.17;;;19.30;79.30;;;;;;5055527;28;20167;-67
2023/10/01 04:52:59;;;;;;;2.47;1.83;;;19.30;79.30;;;;;;5058405;28;20044;-68
2023/10/01 04:55:28;;;;;;;1.73;1.40;;;19.30;79.40;;;;;;5057017;28;20044;-70
2023/10/01 04:57:57;;;;;;;1.85;1.38;;;19.30;79.30;;;;;;5051844;28;20623;-68
2023/10/01 05:00:26;;;;;;;3.00;1.83;;;19.30;79.40;;;;;;5057761;28;20036;-70
2023/10/01 05:02:52;;;;;;;1.88;1.23;;;19.30;79.40;;;;;;5056763;28;20215;-70
2023/10/01 05:05:25;;;;;;;1.73;1.17;;;19.30;79.40;;;;;;5054837;28;20194;-68
2023/10/01 05:08:00;;;;;;;2.00;1.63;;;19.30;79.40;;;;;;5061051;28;20500;-72
2023/10/01 05:10:26;;;;;;;2.00;1.13;;;19.30;79.50;;;;;;5052715;28;20033;-73
2023/10/01 05:12:58;;;;;;;2.58;1.60;;;19.30;79.40;;;;;;5059674;28;20025;-72
2023/10/01 05:15:36;;;;;;;1.77;1.40;;;19.30;79.50;;;;;;5056022;28;20033;-80
2023/10/01 05:18:04;;;;;;;2.25;1.50;;;19.30;79.50;;;;;;5056391;28;20106;-70
2023/10/01 05:20:31;;;;;;;2.10;1.35;;;19.30;79.50;;;;;;5059459;28;20075;-68
2023/10/01 05:23:02;;;;;;;2.33;1.20;;;19.30;79.60;;;;;;5056020;28;20852;-67
2023/10/01 05:25:31;;;;;;;2.45;1.35;;;19.30;79.60;;;;;;5055357;28;20036;-67
2023/10/01 05:27:59;;;;;;;1.85;1.27;;;19.30;79.60;;;;;;5056487;28;20044;-67
2023/10/01 05:30:42;;;;;;;2.42;1.50;;;19.30;79.70;;;;;;5058695;28;20125;-67
2023/10/01 05:33:11;;;;;;;2.55;1.67;;;19.20;79.50;;;;;;5063835;28;20043;-67
2023/10/01 05:35:44;;;;;;;1.90;1.38;;;19.30;79.70;;;;;;5059753;28;20423;-67
2023/10/01 05:38:11;;;;;;;2.15;1.30;;;19.20;79.60;;;;;;5061176;28;20772;-66
2023/10/01 05:40:40;;;;;;;2.17;1.42;;;19.20;79.60;;;;;;5057110;28;20040;-66
2023/10/01 05:43:13;;;;;;;1.77;1.50;;;19.20;79.60;;;;;;5057152;28;20119;-69
2023/10/01 05:45:52;;;;;;;2.30;1.75;;;19.20;79.70;;;;;;5054561;28;20415;-66
2023/10/01 05:48:20;;;;;;;2.88;1.80;;;19.20;79.80;;;;;;5052686;28;20036;-69
2023/10/01 05:50:49;;;;;;;1.42;1.25;;;19.20;79.80;;;;;;5057817;28;20040;-77
2023/10/01 05:53:18;;;;;;;2.45;1.83;;;19.20;79.80;;;;;;5066008;28;20586;-75
2023/10/01 05:55:44;;;;;;;2.28;1.50;;;19.20;79.80;;;;;;5059249;28;20143;-72
2023/10/01 05:58:13;;;;;;;2.72;1.73;;;19.20;79.90;;;;;;5056996;28;20860;-75
2023/10/01 06:03:30;;;;;;;2.88;1.67;;;19.20;79.90;;;;;;5057766;28;20056;-70
2023/10/01 06:05:59;;;;;;;2.88;1.60;;;19.20;79.90;;;;;;5059929;28;20677;-69
2023/10/01 06:08:26;;;;;;;2.70;1.77;;;19.20;79.90;;;;;;5058196;28;20052;-69
2023/10/01 06:10:59;;;;;;;3.97;1.42;;;19.20;79.90;;;;;;5051934;28;20044;-70
2023/10/01 06:13:28;;;;;;;2.80;1.67;;;19.20;79.90;;;;;;5054618;28;20040;-68
2023/10/01 06:15:58;;;;;;;1.90;1.52;;;19.20;80.00;;;;;;5051483;28;20028;-73
2023/10/01 06:18:26;;;;;;;3.53;1.67;;;19.20;80.00;;;;;;5058917;28;20044;-75
2023/10/01 06:20:53;;;;;;;2.67;1.63;;;19.30;80.20;;;;;;5058672;28;20059;-77
2023/10/01 06:23:23;;;;;;;2.60;1.90;;;19.30;80.20;;;;;;5061488;28;20040;-76
2023/10/01 06:25:53;;;;;;;2.90;2.55;;;19.30;80.80;;;;;;5055762;28;20032;-72
2023/10/01 06:28:20;;;;;;;3.65;2.03;;;19.30;80.30;;;;;;5073203;28;20288;-73
2023/10/01 06:30:46;;;;;;;2.85;2.17;;;19.30;80.20;;;;;;5059427;28;20036;-74
2023/10/01 06:33:35;;;;;;;3.75;2.10;;;19.30;80.30;;;;;;5060740;28;20032;-70
2023/10/01 06:36:15;;;;;;;2.95;2.22;;;19.30;80.30;;;;;;5057815;28;20043;-71
2023/10/01 06:38:44;;;;;;;4.70;2.33;;;19.30;80.30;;;;;;5061484;28;20125;-68
2023/10/01 06:41:16;;;;;;;3.13;1.83;;;19.40;80.50;;;;;;5058653;28;20074;-69
2023/10/01 06:43:54;;;;;;;3.35;2.00;;;19.30;80.40;;;;;;5059698;28;20052;-70
2023/10/01 06:46:23;;;;;;;4.13;1.95;;;19.40;80.60;;;;;;5056712;28;20032;-70
2023/10/01 06:48:51;;;;;;;4.93;2.00;;;19.40;80.60;;;;;;5058813;28;20297;-73
2023/10/01 06:51:21;;;;;;;4.82;1.90;;;19.40;80.80;;;;;;5053784;28;20067;-68
2023/10/01 06:54:05;;;;;;;5.55;2.50;;;19.40;80.80;;;;;;5063433;28;20082;-71
2023/10/01 06:56:35;;;;;;;4.78;2.28;;;19.40;80.90;;;;;;5053367;28;20055;-69
2023/10/01 07:01:56;;;;;;;3.20;2.33;;;19.50;81.10;;;;;;5060292;28;20078;-68
2023/10/01 07:04:31;;;;;;;5.97;2.33;;;19.50;81.10;;;;;;5056424;28;20074;-71
2023/10/01 07:06:57;;;;;;;5.75;2.40;;;19.50;81.10;;;;;;5059032;28;20086;-70
2023/10/01 07:09:34;;;;;;;3.85;1.95;;;19.60;81.50;;;;;;5058223;28;20693;-67
2023/10/01 07:12:02;;;;;;;3.78;2.38;;;19.70;81.50;;;;;;5074399;28;20028;-70
2023/10/01 07:14:38;;;;;;;4.30;2.25;;;19.70;81.50;;;;;;5070882;28;20052;-69
2023/10/01 07:17:14;;;;;;;4.45;2.35;;;19.80;81.70;;;;;;5069130;28;20091;-69
2023/10/01 07:19:41;;;;;;;5.38;2.83;;;19.90;81.70;;;;;;5077670;28;20041;-69
2023/10/01 07:22:14;;;;;;;3.50;1.85;;;20.00;82.20;;;;;;5061501;28;20028;-71
2023/10/01 07:24:43;;;;;;;2.97;2.08;;;20.10;81.70;;;;;;5062859;28;20089;-68
2023/10/01 07:27:12;;;;;;;3.75;1.80;;;20.10;81.50;;;;;;5063277;28;20031;-74
2023/10/01 07:29:42;;;;;;;5.22;2.03;;;20.20;81.60;;;;;;5064092;28;20029;-67
2023/10/01 07:32:12;;;;;;;4.20;1.75;;;20.30;81.50;;;;;;5063731;28;20043;-66
2023/10/01 07:34:39;;;;;;;2.65;1.52;;;20.30;81.40;;;;;;5062886;28;20088;-67
2023/10/01 07:37:23;;;;;;;3.45;1.88;;;20.40;81.40;;;;;;5062681;28;20036;-66
2023/10/01 07:40:18;;;;;;;2.38;1.20;;;20.40;81.20;;;;;;5061741;28;20044;-66
2023/10/01 07:42:47;;;;;;;4.10;1.90;;;20.50;81.20;;;;;;5059912;28;20029;-67
2023/10/01 07:45:16;;;;;;;2.08;1.65;;;20.60;81.10;;;;;;5060765;28;20078;-67
2023/10/01 07:47:48;;;;;;;2.22;1.35;;;20.70;81.10;;;;;;5059968;28;20094;-67
2023/10/01 07:50:16;;;;;;;5.35;1.95;;;20.70;80.90;;;;;;5061481;28;20115;-66
2023/10/01 07:52:46;;;;;;;3.97;1.13;;;20.80;80.80;;;;;;5057982;28;20521;-67
2023/10/01 07:55:34;;;;;;;1.52;0.95;;;20.90;80.70;;;;;;5061211;28;20156;-68
2023/10/01 08:00:48;;;;;;;2.80;1.70;;;21.10;80.50;;;;;;5061780;28;20078;-67
2023/10/01 08:05:48;;;;;;;2.00;1.48;;;21.30;80.30;;;;;;5063028;28;20047;-67
2023/10/01 08:08:35;;;;;;;3.33;1.52;;;21.40;80.10;;;;;;5061248;28;20040;-67
2023/10/01 08:11:02;;;;;;;2.45;1.40;;;21.40;79.80;;;;;;5061534;28;20063;-73
2023/10/01 08:13:30;;;;;;;1.75;1.10;;;21.50;79.70;;;;;;5065380;28;20040;-69
2023/10/01 08:16:02;;;;;;;2.25;1.40;;;21.60;79.60;;;;;;5058065;28;20040;-73
2023/10/01 08:18:35;;;;;;;2.97;1.90;;;21.70;79.50;;;;;;5060492;28;20487;-73
2023/10/01 08:21:15;;;;;;;1.95;1.20;;;21.80;79.50;;;;;;5055101;28;20510;-74
2023/10/01 08:23:48;;;;;;;3.13;1.77;;;21.90;79.40;;;;;;5063882;28;20078;-73
2023/10/01 08:29:00;;;;;;;6.22;2.10;;;21.90;79.00;;;;;;5057710;28;20119;-71
2023/10/01 08:34:22;;;;;;;6.85;3.60;;;22.00;78.90;;;;;;5055759;28;20089;-71
2023/10/01 08:36:55;;;;;;;9.02;3.30;;;22.10;79.00;;;;;;5058724;28;20439;-71
2023/10/01 08:39:47;;;;;;;6.20;3.92;;;22.10;78.90;;;;;;5055781;28;20075;-72
2023/10/01 08:42:16;;;;;;;7.53;3.85;;;22.20;78.80;;;;;;5057198;28;20064;-71
2023/10/01 08:44:52;;;;;;;5.88;3.42;;;22.30;78.80;;;;;;5057234;28;20045;-71
2023/10/01 08:47:34;;;;;;;8.23;2.97;;;22.40;78.60;;;;;;5052109;28;20090;-69
2023/10/01 08:50:27;;;;;;;5.83;3.13;;;22.50;78.60;;;;;;5058056;28;20504;-68
2023/10/01 08:52:55;;;;;;;5.20;2.58;;;22.50;78.30;;;;;;5058811;28;20081;-74
2023/10/01 08:55:23;;;;;;;4.35;2.33;;;22.60;78.30;;;;;;5056241;28;20035;-71
2023/10/01 08:57:55;;;;;;;6.13;3.50;;;22.70;78.20;;;;;;5055991;28;20090;-68
2023/10/01 09:00:24;;;;;;;5.38;2.80;;;22.80;78.10;;;;;;5066764;28;20033;-69
2023/10/01 09:02:51;;;;;;;7.15;3.35;;;22.90;78.00;;;;;;5057135;28;20526;-73
2023/10/01 09:05:23;;;;;;;4.75;3.20;;;23.00;77.90;;;;;;5045245;28;20021;-70
2023/10/01 09:08:15;;;;;;;5.30;2.45;;;23.10;77.80;;;;;;5060599;28;20089;-68
2023/10/01 09:10:53;;;;;;;4.80;2.85;;;23.20;77.60;;;;;;5055622;28;20051;-69
2023/10/01 09:13:22;;;;;;;5.50;2.83;;;23.30;77.50;;;;;;5059478;28;20102;-72
2023/10/01 09:15:55;;;;;;;6.97;3.13;;;23.40;77.40;;;;;;5052543;28;20037;-69
2023/10/01 09:18:30;;;;;;;5.53;2.80;;;23.40;77.20;;;;;;5052248;28;20081;-73
2023/10/01 09:21:08;;;;;;;4.10;2.85;;;23.50;77.20;;;;;;5060316;28;20021;-73
2023/10/01 09:23:54;;;;;;;5.47;3.38;;;23.50;77.00;;;;;;5056590;28;20054;-74
2023/10/01 09:26:56;;;;;;;6.30;2.72;;;23.60;76.90;;;;;;5068646;28;20279;-73
2023/10/01 09:29:24;;;;;;;6.85;3.13;;;23.50;76.60;;;;;;5051954;28;20036;-69
2023/10/01 09:31:58;;;;;;;4.72;2.60;;;23.60;76.70;;;;;;5060871;28;20025;-71
2023/10/01 09:34:31;;;;;;;4.72;2.88;;;23.60;76.60;;;;;;5054971;28;20158;-72
2023/10/01 09:37:01;;;;;;;4.07;2.95;;;23.70;76.80;;;;;;5056245;28;20271;-70
2023/10/01 09:39:41;;;;;;;3.33;2.60;;;23.70;76.60;;;;;;5062083;28;20028;-69
2023/10/01 09:42:24;;;;;;;3.42;2.45;;;23.90;76.60;;;;;;5057476;28;20094;-73
2023/10/01 09:44:55;;;;;;;5.47;3.05;;;24.00;76.40;;;;;;5045844;28;20029;-71
2023/10/01 09:47:25;;;;;;;5.93;2.88;;;24.10;76.20;;;;;;5057797;28;20064;-68
2023/10/01 09:49:52;;;;;;;4.95;3.05;;;24.20;76.10;;;;;;5061699;28;20032;-69
2023/10/01 09:52:27;;;;;;;4.78;2.78;;;24.20;75.80;;;;;;5060842;28;20123;-69
2023/10/01 09:55:23;;;;;;;5.63;4.05;;;24.30;75.80;;;;;;5058740;28;20190;-70
2023/10/01 09:57:52;;;;;;;4.78;2.97;;;24.40;75.60;;;;;;5053915;28;20025;-68
2023/10/01 10:00:20;;;;;;;5.22;2.85;;;24.50;75.70;;;;;;5076776;28;20514;-69
2023/10/01 10:02:54;;;;;;;5.35;2.88;;;24.60;75.50;;;;;;5066108;28;20048;-70
2023/10/01 10:05:26;;;;;;;5.15;2.65;;;24.70;75.30;;;;;;5054163;28;20476;-68
2023/10/01 10:07:54;;;;;;;5.47;2.88;;;24.80;75.10;;;;;;5061289;28;20052;-68
2023/10/01 10:10:24;;;;;;;5.43;2.60;;;25.00;75.10;;;;;;5057301;28;20021;-69
2023/10/01 10:13:45;;;;;;;5.68;3.40;;;25.10;74.80;;;;;;5064436;28;20036;-70
2023/10/01 10:16:32;;;;;;;4.60;2.47;;;25.10;74.30;;;;;;5070732;28;20144;-68
2023/10/01 10:19:05;;;;;;;4.47;2.35;;;25.10;74.40;;;;;;5055393;28;20044;-70
2023/10/01 10:24:46;;;;;;;4.30;2.50;;;24.90;74.10;;;;;;5055699;28;20463;-67
2023/10/01 10:27:25;;;;;;;3.08;2.22;;;24.90;74.40;;;;;;5053192;28;20033;-68
2023/10/01 10:29:57;;;;;;;48.67;28.40;;;24.80;74.20;;;;;;5057254;28;20374;-68
2023/10/01 10:32:24;;;;;;;378.58;274.60;;;24.80;74.40;;;;;;5059407;28;20573;-68
2023/10/01 10:35:06;;;;;;;435.23;344.13;;;24.70;74.40;;;;;;5054533;28;20365;-68
2023/10/01 10:37:35;;;;;;;300.58;236.30;;;24.70;74.20;;;;;;5047676;28;20468;-68
2023/10/01 10:40:12;;;;;;;215.80;164.15;;;24.70;74.30;;;;;;5061409;28;20035;-68
2023/10/01 10:43:04;;;;;;;177.60;141.25;;;24.70;74.30;;;;;;5064516;28;20037;-70
2023/10/01 10:45:45;;;;;;;142.27;117.53;;;24.70;74.30;;;;;;5057373;28;20028;-68
2023/10/01 10:48:24;;;;;;;121.85;95.88;;;24.70;74.40;;;;;;5052727;28;20039;-69
2023/10/01 10:50:58;;;;;;;115.65;91.40;;;24.80;74.70;;;;;;5055851;28;20024;-69
2023/10/01 10:53:25;;;;;;;94.05;76.55;;;24.90;75.00;;;;;;5059485;28;20032;-69
2023/10/01 10:56:06;;;;;;;81.13;67.25;;;25.00;75.40;;;;;;5056838;28;20225;-68
2023/10/01 10:58:40;;;;;;;80.00;66.90;;;25.00;75.60;;;;;;5053797;28;20059;-68
2023/10/01 11:01:16;;;;;;;69.72;57.63;;;25.00;75.80;;;;;;5052640;28;20051;-68
2023/10/01 11:03:44;;;;;;;56.55;44.80;;;25.10;75.90;;;;;;5064767;28;20086;-68
2023/10/01 11:06:23;;;;;;;47.25;39.60;;;25.10;75.80;;;;;;5058608;28;20523;-68
2023/10/01 11:08:54;;;;;;;38.80;34.08;;;25.20;75.50;;;;;;5062993;28;20278;-69
2023/10/01 11:11:39;;;;;;;31.63;24.88;;;25.10;75.30;;;;;;5062608;28;20472;-68
2023/10/01 11:14:11;;;;;;;26.77;20.40;;;25.10;74.90;;;;;;5050147;28;20123;-68
2023/10/01 11:16:40;;;;;;;;;;;25.20;74.90;;;;;;5050729;28;20120;-70
2023/10/01 11:19:13;;;;;;;23.90;20.52;;;25.20;74.80;;;;;;5057842;28;20065;-68
2023/10/01 11:21:51;;;;;;;28.23;20.27;;;25.30;74.70;;;;;;5060049;28;20033;-68
2023/10/01 11:24:17;;;;;;;27.35;21.70;;;25.30;74.40;;;;;;5052187;28;20040;-69
2023/10/01 11:27:43;;;;;;;24.85;20.23;;;25.30;74.30;;;;;;5055064;28;20078;-68
2023/10/01 11:30:15;;;;;;;28.55;24.70;;;25.40;74.00;;;;;;5055800;28;20025;-69
2023/10/01 11:32:57;;;;;;;27.08;19.65;;;25.40;74.00;;;;;;5048397;28;20123;-70
2023/10/01 11:35:34;;;;;;;22.73;18.23;;;25.40;73.90;;;;;;5054291;28;20024;-70
2023/10/01 11:38:09;;;;;;;24.52;19.35;;;25.50;73.70;;;;;;5051147;28;20033;-73
2023/10/01 11:41:38;;;;;;;20.30;17.17;;;25.50;73.60;;;;;;5057968;28;20039;-71
2023/10/01 11:43:27;;;;;;;23.95;17.05;;;25.50;73.50;;;;;;5047756;28;20033;-73
2023/10/01 11:46:19;;;;;;;21.40;17.67;;;25.50;73.40;;;;;;5054656;28;20032;-69
2023/10/01 11:49:04;;;;;;;19.50;16.05;;;25.60;73.20;;;;;;5056298;28;20798;-72
2023/10/01 11:51:54;;;;;;;16.23;13.70;;;25.50;73.20;;;;;;5041773;28;20095;-72
2023/10/01 11:54:24;;;;;;;14.55;13.05;;;25.60;73.10;;;;;;5052536;28;20028;-72
2023/10/01 11:57:05;;;;;;;18.75;13.30;;;25.60;73.00;;;;;;5048612;28;20025;-73
2023/10/01 11:59:37;;;;;;;14.98;11.95;;;25.60;72.90;;;;;;5055798;28;20067;-69
2023/10/01 12:02:20;;;;;;;14.25;11.40;;;25.80;72.80;;;;;;5054723;28;20051;-67
2023/10/01 12:05:06;;;;;;;14.00;11.65;;;25.80;72.60;;;;;;5052965;28;20034;-67
2023/10/01 12:07:45;;;;;;;12.55;10.10;;;25.90;72.40;;;;;;5052233;28;20036;-68
2023/10/01 12:13:01;;;;;;;14.93;11.07;;;26.10;72.00;;;;;;5062919;28;20040;-69
2023/10/01 12:15:35;;;;;;;10.57;9.18;;;26.30;71.90;;;;;;5053334;28;20024;-68
2023/10/01 12:18:13;;;;;;;10.23;8.77;;;26.30;71.70;;;;;;5056481;28;20036;-69
2023/10/01 12:20:47;;;;;;;11.10;8.90;;;26.40;71.50;;;;;;5057684;28;20025;-68
2023/10/01 12:23:15;;;;;;;10.98;8.75;;;26.50;71.40;;;;;;5062041;28;20585;-68
2023/10/01 12:28:18;;;;;;;9.43;8.15;;;26.70;70.90;;;;;;5050023;28;20029;-69
2023/10/01 12:30:47;;;;;;;11.75;8.90;;;26.70;70.70;;;;;;5058653;28;20039;-68
2023/10/01 12:33:14;;;;;;;10.93;9.25;;;26.80;70.60;;;;;;5058723;28;20986;-68
2023/10/01 12:35:40;;;;;;;10.35;8.02;;;26.80;70.50;;;;;;5054520;28;21364;-70
2023/10/01 12:40:36;;;;;;;11.55;9.43;;;26.90;70.20;;;;;;5063695;28;20032;-70
2023/10/01 12:45:51;;;;;;;9.27;8.27;;;27.10;69.90;;;;;;5049163;28;20032;-68
2023/10/01 12:48:20;;;;;;;11.38;8.32;;;27.20;69.70;;;;;;5060407;28;20230;-68
2023/10/01 12:51:08;;;;;;;10.40;8.27;;;27.30;69.40;;;;;;5057962;28;20028;-68
2023/10/01 12:53:48;;;;;;;10.27;7.47;;;27.40;69.20;;;;;;5056022;28;20070;-69
2023/10/01 12:56:16;;;;;;;16.30;14.27;;;27.60;69.00;;;;;;5054138;28;20141;-69
2023/10/01 12:58:53;;;;;;;15.20;13.13;;;27.70;68.60;;;;;;5067558;28;20048;-70
2023/10/01 13:01:37;;;;;;;14.73;13.25;;;27.80;68.20;;;;;;5053339;28;20177;-68
2023/10/01 13:04:22;;;;;;;15.05;13.55;;;27.70;68.00;;;;;;5068219;28;20032;-70
2023/10/01 13:06:49;;;;;;;15.40;13.35;;;27.70;68.00;;;;;;5061601;28;20482;-70
2023/10/01 13:09:35;;;;;;;16.13;12.90;;;27.60;68.00;;;;;;5051092;28;20031;-71
2023/10/01 13:12:13;;;;;;;13.52;12.00;;;27.50;68.00;;;;;;5062790;28;20036;-69
2023/10/01 13:14:41;;;;;;;14.70;12.45;;;27.40;68.10;;;;;;5050530;28;20044;-70
2023/10/01 13:17:19;;;;;;;12.18;10.85;;;27.30;68.20;;;;;;5053439;28;20060;-68
2023/10/01 13:19:48;;;;;;;11.40;10.20;;;27.20;68.30;;;;;;5058403;28;20111;-70
2023/10/01 13:22:18;;;;;;;10.77;9.38;;;27.10;68.40;;;;;;5053440;28;20075;-71
2023/10/01 13:24:53;;;;;;;11.70;9.45;;;27.00;68.50;;;;;;5054820;28;20052;-69
2023/10/01 13:27:23;;;;;;;12.38;10.23;;;26.90;68.60;;;;;;5052514;28;20841;-69
2023/10/01 13:29:49;;;;;;;11.02;9.20;;;26.70;68.70;;;;;;5049676;28;20021;-71
2023/10/01 13:32:17;;;;;;;10.07;8.75;;;26.70;68.90;;;;;;5057182;28;20781;-71
2023/10/01 13:34:54;;;;;;;8.20;6.85;;;26.60;68.90;;;;;;5059502;28;20028;-71
2023/10/01 14:10:38;;;;;;;7.18;6.47;;;27.00;68.50;;;;;;5053483;28;20066;-71
2023/10/01 14:13:06;;;;;;;7.43;6.07;;;27.10;68.30;;;;;;5056859;28;20071;-69
2023/10/01 14:15:32;;;;;;;6.72;5.22;;;27.10;68.20;;;;;;5051104;28;20032;-71
2023/10/01 14:18:00;;;;;;;5.70;5.10;;;27.10;68.00;;;;;;5056505;28;20040;-70
2023/10/01 14:23:22;;;;;;;6.28;5.18;;;27.20;67.80;;;;;;5057406;28;20036;-69
2023/10/01 14:25:52;;;;;;;5.10;4.60;;;27.30;67.70;;;;;;5058410;28;20032;-69
2023/10/01 14:28:22;;;;;;;5.50;5.00;;;27.40;67.60;;;;;;5061148;28;20036;-70
2023/10/01 14:31:02;;;;;;;6.20;4.50;;;27.50;67.30;;;;;;5048687;28;20476;-70
2023/10/01 14:33:29;;;;;;;5.90;4.32;;;27.60;67.10;;;;;;5054769;28;20093;-71
2023/10/01 14:36:03;;;;;;;4.78;4.30;;;27.70;67.00;;;;;;5053229;28;20052;-70
2023/10/01 14:38:42;;;;;;;4.75;4.35;;;27.70;66.90;;;;;;5050449;28;20109;-72